sensor_id;sensor_type;location;lat;lon;timestamp;pressure;altitude;pressure_sealevel;temperature;humidity
12722;BME280;6425;50.316;8.114;2023-05-18T00:00:00;999;;;5.9;79.4
12722;BME280;6425;50.316;8.114;2023-05-18T00:03:00;999;;;5.9;79.3
12722;BME280;6425;50.316;8.114;2023-05-18T00:06:00;999;;;5.8;79.7
12722;BME280;6425;50.316;8.114;2023-05-18T00:09:00;999;;;5.5;80.3
12722;BME280;6425;50.316;8.114;2023-05-18T00:12:00;999;;;5.5;80.5
12722;BME280;6425;50.316;8.114;2023-05-18T00:15:00;999;;;5.5;80.5
12722;BME280;6425;50.316;8.114;2023-05-18T00:18:00;999;;;5.5;80.5
12722;BME280;6425;50.316;8.114;2023-05-18T00:21:00;999;;;5.4;80.5
12722;BME280;6425;50.316;8.114;2023-05-18T00:24:00;999;;;5.4;80.8
12722;BME280;6425;50.316;8.114;2023-05-18T00:27:00;999;;;5.5;80.4
12722;BME280;6425;50.316;8.114;2023-05-18T00:30:00;999;;;5.4;80.6
12722;BME280;6425;50.316;8.114;2023-05-18T00:33:00;999;;;5.4;80.6
12722;BME280;6425;50.316;8.114;2023-05-18T00:36:00;999;;;5.4;80.4
12722;BME280;6425;50.316;8.114;2023-05-18T00:39:00;999;;;5.5;80.3
12722;BME280;6425;50.316;8.114;2023-05-18T00:42:00;999;;;5.5;80.1
12722;BME280;6425;50.316;8.114;2023-05-18T00:45:00;999;;;5.7;79.5
12722;BME280;6425;50.316;8.114;2023-05-18T00:48:00;999;;;5.8;78.5
12722;BME280;6425;50.316;8.114;2023-05-18T00:51:00;999;;;5.8;78.3
12722;BME280;6425;50.316;8.114;2023-05-18T00:54:00;999;;;5.8;78
12722;BME280;6425;50.316;8.114;2023-05-18T00:57:00;999;;;5.8;78.1
12722;BME280;6425;50.316;8.114;2023-05-18T01:00:00;999;;;5.8;77.4
12722;BME280;6425;50.316;8.114;2023-05-18T01:03:00;999;;;5.6;77.5
12722;BME280;6425;50.316;8.114;2023-05-18T01:06:00;999;;;5.5;77.9
12722;BME280;6425;50.316;8.114;2023-05-18T01:09:00;999;;;5.6;77.8
12722;BME280;6425;50.316;8.114;2023-05-18T01:12:02;999;;;5.6;78.2
12722;BME280;6425;50.316;8.114;2023-05-18T01:15:02;999;;;5.6;78.4
12722;BME280;6425;50.316;8.114;2023-05-18T01:18:03;999;;;5.5;78.5
12722;BME280;6425;50.316;8.114;2023-05-18T01:21:02;999;;;5.4;79
12722;BME280;6425;50.316;8.114;2023-05-18T01:24:02;999;;;5.2;79.7
12722;BME280;6425;50.316;8.114;2023-05-18T01:27:00;999;;;5.1;80.6
12722;BME280;6425;50.316;8.114;2023-05-18T01:30:00;999;;;5.2;80.6
12722;BME280;6425;50.316;8.114;2023-05-18T01:33:00;999;;;5.2;80.1
12722;BME280;6425;50.316;8.114;2023-05-18T01:36:00;999;;;5.2;80.1
12722;BME280;6425;50.316;8.114;2023-05-18T01:39:00;999;;;5.1;80.2
12722;BME280;6425;50.316;8.114;2023-05-18T01:42:00;999;;;5;80.6
12722;BME280;6425;50.316;8.114;2023-05-18T01:45:01;999;;;4.8;81.4
12722;BME280;6425;50.316;8.114;2023-05-18T01:48:00;999;;;4.6;82.3
12722;BME280;6425;50.316;8.114;2023-05-18T01:51:00;999;;;4.5;83.5
12722;BME280;6425;50.316;8.114;2023-05-18T01:54:01;999;;;4.5;84.1
12722;BME280;6425;50.316;8.114;2023-05-18T01:57:00;999;;;4.5;83.8
12722;BME280;6425;50.316;8.114;2023-05-18T02:00:00;999;;;4.5;83.5
12722;BME280;6425;50.316;8.114;2023-05-18T02:03:00;999;;;4.5;83.8
12722;BME280;6425;50.316;8.114;2023-05-18T02:06:00;999;;;4.6;83.3
12722;BME280;6425;50.316;8.114;2023-05-18T02:09:00;999;;;4.7;81.7
12722;BME280;6425;50.316;8.114;2023-05-18T02:12:00;999;;;4.8;79.7
12722;BME280;6425;50.316;8.114;2023-05-18T02:15:00;999;;;4.8;78.9
12722;BME280;6425;50.316;8.114;2023-05-18T02:18:00;999;;;4.7;78.9
12722;BME280;6425;50.316;8.114;2023-05-18T02:21:00;999;;;4.4;80.4
12722;BME280;6425;50.316;8.114;2023-05-18T02:24:00;999;;;4.2;81.7
12722;BME280;6425;50.316;8.114;2023-05-18T02:27:00;999;;;4.2;82.1
12722;BME280;6425;50.316;8.114;2023-05-18T02:30:00;999;;;4.3;82
12722;BME280;6425;50.316;8.114;2023-05-18T02:33:00;999;;;4.3;81.5
12722;BME280;6425;50.316;8.114;2023-05-18T02:36:00;999;;;4.3;80.6
12722;BME280;6425;50.316;8.114;2023-05-18T02:39:00;999;;;4.1;80.7
12722;BME280;6425;50.316;8.114;2023-05-18T02:42:00;999;;;4.1;81.4
12722;BME280;6425;50.316;8.114;2023-05-18T02:45:00;999;;;4.3;81
12722;BME280;6425;50.316;8.114;2023-05-18T02:48:00;999;;;4.2;81.2
12722;BME280;6425;50.316;8.114;2023-05-18T02:51:00;999;;;4.3;81
12722;BME280;6425;50.316;8.114;2023-05-18T02:54:00;999;;;4.4;80.9
12722;BME280;6425;50.316;8.114;2023-05-18T02:57:00;999;;;4.4;81.7
12722;BME280;6425;50.316;8.114;2023-05-18T03:00:00;999;;;4.3;82.7
12722;BME280;6425;50.316;8.114;2023-05-18T03:03:00;999;;;4.4;83.2
12722;BME280;6425;50.316;8.114;2023-05-18T03:06:00;999;;;4.6;83
12722;BME280;6425;50.316;8.114;2023-05-18T03:09:00;999;;;4.8;82.3
12722;BME280;6425;50.316;8.114;2023-05-18T03:12:00;999;;;4.9;81.1
12722;BME280;6425;50.316;8.114;2023-05-18T03:15:00;999;;;5.3;79.8
12722;BME280;6425;50.316;8.114;2023-05-18T03:18:00;999;;;5.5;78
12722;BME280;6425;50.316;8.114;2023-05-18T03:21:00;999;;;5.6;76.6
12722;BME280;6425;50.316;8.114;2023-05-18T03:24:00;999;;;5.6;76.2
12722;BME280;6425;50.316;8.114;2023-05-18T03:27:00;999;;;5.6;76
12722;BME280;6425;50.316;8.114;2023-05-18T03:30:00;999;;;5.5;75.3
12722;BME280;6425;50.316;8.114;2023-05-18T03:33:00;999;;;5.5;74.9
12722;BME280;6425;50.316;8.114;2023-05-18T03:36:01;999;;;5.3;75
12722;BME280;6425;50.316;8.114;2023-05-18T03:39:00;999;;;5.2;75.5
12722;BME280;6425;50.316;8.114;2023-05-18T03:42:00;999;;;5.1;76
12722;BME280;6425;50.316;8.114;2023-05-18T03:45:00;999;;;5.1;76.2
12722;BME280;6425;50.316;8.114;2023-05-18T03:48:00;999;;;5.2;76.8
12722;BME280;6425;50.316;8.114;2023-05-18T03:51:00;999;;;5.3;77.1
12722;BME280;6425;50.316;8.114;2023-05-18T03:54:00;999;;;5.2;77.5
12722;BME280;6425;50.316;8.114;2023-05-18T03:57:00;999;;;5.3;77.3
12722;BME280;6425;50.316;8.114;2023-05-18T04:00:00;999;;;4.9;77.7
12722;BME280;6425;50.316;8.114;2023-05-18T04:03:00;999;;;4.4;81
12722;BME280;6425;50.316;8.114;2023-05-18T04:06:00;999;;;4.3;82.6
12722;BME280;6425;50.316;8.114;2023-05-18T04:09:00;999;;;4.5;82.4
12722;BME280;6425;50.316;8.114;2023-05-18T04:12:00;999;;;4.7;81.7
12722;BME280;6425;50.316;8.114;2023-05-18T04:15:00;999;;;4.8;80.6
12722;BME280;6425;50.316;8.114;2023-05-18T04:18:00;999;;;4.5;81.5
12722;BME280;6425;50.316;8.114;2023-05-18T04:21:00;999;;;4.1;82.6
12722;BME280;6425;50.316;8.114;2023-05-18T04:24:00;1000;;;3.9;85
12722;BME280;6425;50.316;8.114;2023-05-18T04:27:00;1000;;;4.4;85.1
12722;BME280;6425;50.316;8.114;2023-05-18T04:30:00;999;;;4.9;83
12722;BME280;6425;50.316;8.114;2023-05-18T04:33:00;999;;;5.2;81.7
12722;BME280;6425;50.316;8.114;2023-05-18T04:36:00;1000;;;5.7;80.2
12722;BME280;6425;50.316;8.114;2023-05-18T04:39:00;1000;;;5.6;78.5
12722;BME280;6425;50.316;8.114;2023-05-18T04:42:00;1000;;;5.2;79.3
12722;BME280;6425;50.316;8.114;2023-05-18T04:45:00;1000;;;5;80.6
12722;BME280;6425;50.316;8.114;2023-05-18T04:48:00;1000;;;4.9;82
12722;BME280;6425;50.316;8.114;2023-05-18T04:51:00;1000;;;4.7;83.1
12722;BME280;6425;50.316;8.114;2023-05-18T04:54:00;1000;;;5.3;82.6
12722;BME280;6425;50.316;8.114;2023-05-18T04:57:00;1000;;;5.9;80.5
12722;BME280;6425;50.316;8.114;2023-05-18T05:00:00;1000;;;6.4;78.4
12722;BME280;6425;50.316;8.114;2023-05-18T05:03:00;1000;;;6.5;76.4
12722;BME280;6425;50.316;8.114;2023-05-18T05:06:00;1000;;;6.8;75.9
12722;BME280;6425;50.316;8.114;2023-05-18T05:09:00;1000;;;7.2;75.2
12722;BME280;6425;50.316;8.114;2023-05-18T05:12:00;1000;;;7.7;73.7
12722;BME280;6425;50.316;8.114;2023-05-18T05:15:00;1000;;;8.3;68.2
12722;BME280;6425;50.316;8.114;2023-05-18T05:18:00;1000;;;8.1;66.6
12722;BME280;6425;50.316;8.114;2023-05-18T05:21:00;1000;;;7.8;68
12722;BME280;6425;50.316;8.114;2023-05-18T05:24:00;1000;;;7.7;69.2
12722;BME280;6425;50.316;8.114;2023-05-18T05:27:00;1000;;;8;68.3
12722;BME280;6425;50.316;8.114;2023-05-18T05:30:00;1000;;;8.2;68
12722;BME280;6425;50.316;8.114;2023-05-18T05:33:00;1000;;;8.1;67.2
12722;BME280;6425;50.316;8.114;2023-05-18T05:36:00;1000;;;8.1;67.2
12722;BME280;6425;50.316;8.114;2023-05-18T05:39:00;1000;;;8.1;66.5
12722;BME280;6425;50.316;8.114;2023-05-18T05:42:00;1000;;;8.1;67.3
12722;BME280;6425;50.316;8.114;2023-05-18T05:45:00;1000;;;8.7;65.2
12722;BME280;6425;50.316;8.114;2023-05-18T05:48:00;1000;;;8.1;65.9
12722;BME280;6425;50.316;8.114;2023-05-18T05:51:00;1000;;;8.4;66.5
12722;BME280;6425;50.316;8.114;2023-05-18T05:54:00;1000;;;8.6;65.7
12722;BME280;6425;50.316;8.114;2023-05-18T05:57:00;1000;;;8.9;64.2
12722;BME280;6425;50.316;8.114;2023-05-18T06:00:00;1000;;;8.5;65.8
12722;BME280;6425;50.316;8.114;2023-05-18T06:03:00;1000;;;8.8;64.3
12722;BME280;6425;50.316;8.114;2023-05-18T06:06:00;1000;;;8.3;66.2
12722;BME280;6425;50.316;8.114;2023-05-18T06:09:00;1000;;;8.5;67.1
12722;BME280;6425;50.316;8.114;2023-05-18T06:12:00;1000;;;8.7;66.9
12722;BME280;6425;50.316;8.114;2023-05-18T06:15:00;1000;;;9.4;64.9
12722;BME280;6425;50.316;8.114;2023-05-18T06:18:00;1000;;;9.5;63.6
12722;BME280;6425;50.316;8.114;2023-05-18T06:21:00;1000;;;9.2;64.5
12722;BME280;6425;50.316;8.114;2023-05-18T06:24:00;1000;;;9.4;63.2
12722;BME280;6425;50.316;8.114;2023-05-18T06:27:00;1000;;;9.2;65
12722;BME280;6425;50.316;8.114;2023-05-18T06:30:00;1000;;;9.1;64.3
12722;BME280;6425;50.316;8.114;2023-05-18T06:33:00;1000;;;8.8;66.4
12722;BME280;6425;50.316;8.114;2023-05-18T06:36:00;1000;;;9.5;65.2
12722;BME280;6425;50.316;8.114;2023-05-18T06:39:00;1000;;;9.6;64
12722;BME280;6425;50.316;8.114;2023-05-18T06:42:00;1000;;;10.4;61.8
12722;BME280;6425;50.316;8.114;2023-05-18T06:45:00;1000;;;11.4;58.5
12722;BME280;6425;50.316;8.114;2023-05-18T06:48:00;1000;;;11.5;55.6
12722;BME280;6425;50.316;8.114;2023-05-18T06:51:00;1000;;;10.6;58.6
12722;BME280;6425;50.316;8.114;2023-05-18T06:54:00;1000;;;10.7;58.8
12722;BME280;6425;50.316;8.114;2023-05-18T06:57:00;1000;;;10.4;58.6
12722;BME280;6425;50.316;8.114;2023-05-18T07:00:00;1000;;;10.3;60.4
12722;BME280;6425;50.316;8.114;2023-05-18T07:03:00;1000;;;10.6;59.1
12722;BME280;6425;50.316;8.114;2023-05-18T07:06:00;1000;;;10.7;58.8
12722;BME280;6425;50.316;8.114;2023-05-18T07:09:01;1000;;;10.6;59
12722;BME280;6425;50.316;8.114;2023-05-18T07:12:00;1000;;;10.7;58.5
12722;BME280;6425;50.316;8.114;2023-05-18T07:15:00;1000;;;10.6;58.6
12722;BME280;6425;50.316;8.114;2023-05-18T07:18:00;1000;;;10.4;59.3
12722;BME280;6425;50.316;8.114;2023-05-18T07:21:00;1000;;;10.4;58.9
12722;BME280;6425;50.316;8.114;2023-05-18T07:24:00;1000;;;10.4;58.9
12722;BME280;6425;50.316;8.114;2023-05-18T07:27:00;1000;;;10.7;59.3
12722;BME280;6425;50.316;8.114;2023-05-18T07:30:00;1000;;;11.2;57.5
12722;BME280;6425;50.316;8.114;2023-05-18T07:33:00;1000;;;11.2;58.2
12722;BME280;6425;50.316;8.114;2023-05-18T07:36:00;1000;;;11.1;56.7
12722;BME280;6425;50.316;8.114;2023-05-18T07:39:00;1000;;;11.6;57.2
12722;BME280;6425;50.316;8.114;2023-05-18T07:42:00;1000;;;11.6;57.1
12722;BME280;6425;50.316;8.114;2023-05-18T07:45:00;1000;;;11.6;56.6
12722;BME280;6425;50.316;8.114;2023-05-18T07:48:00;1000;;;11.7;56.6
12722;BME280;6425;50.316;8.114;2023-05-18T07:51:00;1000;;;11.7;56.1
12722;BME280;6425;50.316;8.114;2023-05-18T07:54:00;1000;;;12.1;56.5
12722;BME280;6425;50.316;8.114;2023-05-18T07:57:00;1000;;;11.9;55.5
12722;BME280;6425;50.316;8.114;2023-05-18T08:00:00;1000;;;11.8;55.6
12722;BME280;6425;50.316;8.114;2023-05-18T08:03:00;1000;;;11.6;57.8
12722;BME280;6425;50.316;8.114;2023-05-18T08:06:00;1000;;;12;55.9
12722;BME280;6425;50.316;8.114;2023-05-18T08:09:00;1000;;;11.9;55.7
12722;BME280;6425;50.316;8.114;2023-05-18T08:12:00;1000;;;11.5;56.8
12722;BME280;6425;50.316;8.114;2023-05-18T08:15:00;1000;;;12;56.2
12722;BME280;6425;50.316;8.114;2023-05-18T08:18:00;1000;;;12.5;55.4
12722;BME280;6425;50.316;8.114;2023-05-18T08:21:00;999;;;13.4;53
12722;BME280;6425;50.316;8.114;2023-05-18T08:24:00;1000;;;13.5;52.1
12722;BME280;6425;50.316;8.114;2023-05-18T08:27:00;1000;;;13.4;51.8
12722;BME280;6425;50.316;8.114;2023-05-18T08:30:00;999;;;12.8;53.3
12722;BME280;6425;50.316;8.114;2023-05-18T08:33:00;999;;;13.5;52.6
12722;BME280;6425;50.316;8.114;2023-05-18T08:36:00;999;;;14.4;49.7
12722;BME280;6425;50.316;8.114;2023-05-18T08:39:00;999;;;13.6;51.2
12722;BME280;6425;50.316;8.114;2023-05-18T08:42:00;1000;;;13.9;51
12722;BME280;6425;50.316;8.114;2023-05-18T08:45:01;999;;;13.7;51.9
12722;BME280;6425;50.316;8.114;2023-05-18T08:48:00;999;;;14;51.7
12722;BME280;6425;50.316;8.114;2023-05-18T08:51:00;999;;;14.9;49.7
12722;BME280;6425;50.316;8.114;2023-05-18T08:54:00;999;;;14.2;51.4
12722;BME280;6425;50.316;8.114;2023-05-18T08:57:00;999;;;13.5;51.3
12722;BME280;6425;50.316;8.114;2023-05-18T09:00:00;999;;;13.6;53.6
12722;BME280;6425;50.316;8.114;2023-05-18T09:03:01;999;;;14.8;49.6
12722;BME280;6425;50.316;8.114;2023-05-18T09:06:00;999;;;14.5;49.3
12722;BME280;6425;50.316;8.114;2023-05-18T09:09:00;999;;;14.2;50.1
12722;BME280;6425;50.316;8.114;2023-05-18T09:12:00;999;;;14.1;49.8
12722;BME280;6425;50.316;8.114;2023-05-18T09:15:00;999;;;13.6;50
12722;BME280;6425;50.316;8.114;2023-05-18T09:18:00;999;;;13.5;51.3
12722;BME280;6425;50.316;8.114;2023-05-18T09:21:00;999;;;13.2;51.3
12722;BME280;6425;50.316;8.114;2023-05-18T09:24:00;999;;;13.7;52.1
12722;BME280;6425;50.316;8.114;2023-05-18T09:27:00;999;;;13.5;50.8
12722;BME280;6425;50.316;8.114;2023-05-18T09:30:00;999;;;13.2;48.5
12722;BME280;6425;50.316;8.114;2023-05-18T09:33:00;999;;;13.9;46.5
12722;BME280;6425;50.316;8.114;2023-05-18T09:36:00;999;;;14.1;45.3
12722;BME280;6425;50.316;8.114;2023-05-18T09:39:00;999;;;13.9;44.7
12722;BME280;6425;50.316;8.114;2023-05-18T09:42:01;999;;;14;43.7
12722;BME280;6425;50.316;8.114;2023-05-18T09:45:00;999;;;13.7;45.4
12722;BME280;6425;50.316;8.114;2023-05-18T09:48:00;999;;;14.1;45.5
12722;BME280;6425;50.316;8.114;2023-05-18T09:51:00;999;;;14.7;44
12722;BME280;6425;50.316;8.114;2023-05-18T09:54:00;999;;;14.6;44.8
12722;BME280;6425;50.316;8.114;2023-05-18T09:57:00;999;;;14.9;43.5
12722;BME280;6425;50.316;8.114;2023-05-18T10:00:02;999;;;14.7;43.9
12722;BME280;6425;50.316;8.114;2023-05-18T10:03:00;999;;;14.9;43.9
12722;BME280;6425;50.316;8.114;2023-05-18T10:06:01;999;;;14.9;43.8
12722;BME280;6425;50.316;8.114;2023-05-18T10:09:00;999;;;14.6;45.2
12722;BME280;6425;50.316;8.114;2023-05-18T10:12:00;999;;;14.7;44.8
12722;BME280;6425;50.316;8.114;2023-05-18T10:15:00;999;;;14.7;45.1
12722;BME280;6425;50.316;8.114;2023-05-18T10:18:00;999;;;14.3;45.6
12722;BME280;6425;50.316;8.114;2023-05-18T10:21:00;999;;;14.6;45.3
12722;BME280;6425;50.316;8.114;2023-05-18T10:24:00;999;;;14.7;44.5
12722;BME280;6425;50.316;8.114;2023-05-18T10:27:00;999;;;14.5;45.7
12722;BME280;6425;50.316;8.114;2023-05-18T10:30:00;999;;;14.7;45.1
12722;BME280;6425;50.316;8.114;2023-05-18T10:33:00;999;;;15.3;45.7
12722;BME280;6425;50.316;8.114;2023-05-18T10:36:00;999;;;15.3;44.6
12722;BME280;6425;50.316;8.114;2023-05-18T10:39:00;999;;;15.8;44
12722;BME280;6425;50.316;8.114;2023-05-18T10:42:00;999;;;14.9;44.6
12722;BME280;6425;50.316;8.114;2023-05-18T10:45:00;999;;;15.6;43.7
12722;BME280;6425;50.316;8.114;2023-05-18T10:48:01;999;;;16.6;42.8
12722;BME280;6425;50.316;8.114;2023-05-18T10:51:00;999;;;15.8;43.4
12722;BME280;6425;50.316;8.114;2023-05-18T10:54:05;999;;;15.6;44.2
12722;BME280;6425;50.316;8.114;2023-05-18T10:57:00;999;;;15.6;44.3
12722;BME280;6425;50.316;8.114;2023-05-18T11:00:00;999;;;15.8;44
12722;BME280;6425;50.316;8.114;2023-05-18T11:03:00;999;;;16.1;43
12722;BME280;6425;50.316;8.114;2023-05-18T11:06:02;999;;;16.3;41.8
12722;BME280;6425;50.316;8.114;2023-05-18T11:09:00;999;;;16.7;41.5
12722;BME280;6425;50.316;8.114;2023-05-18T11:12:00;999;;;15.7;43.6
12722;BME280;6425;50.316;8.114;2023-05-18T11:15:00;999;;;16.5;42.5
12722;BME280;6425;50.316;8.114;2023-05-18T11:18:11;998;;;16.8;42.3
12722;BME280;6425;50.316;8.114;2023-05-18T11:21:00;998;;;16.4;42.3
12722;BME280;6425;50.316;8.114;2023-05-18T11:24:31;998;;;16.7;41.5
12722;BME280;6425;50.316;8.114;2023-05-18T11:27:00;998;;;16.7;42.5
12722;BME280;6425;50.316;8.114;2023-05-18T11:30:00;998;;;16.6;40.8
12722;BME280;6425;50.316;8.114;2023-05-18T11:33:07;998;;;17.6;40.4
12722;BME280;6425;50.316;8.114;2023-05-18T11:36:01;998;;;16.6;40.6
12722;BME280;6425;50.316;8.114;2023-05-18T11:39:01;998;;;16.4;40.9
12722;BME280;6425;50.316;8.114;2023-05-18T11:42:00;998;;;15.8;43.1
12722;BME280;6425;50.316;8.114;2023-05-18T11:45:04;998;;;15.3;44.1
12722;BME280;6425;50.316;8.114;2023-05-18T11:48:00;998;;;16;41.9
12722;BME280;6425;50.316;8.114;2023-05-18T11:51:00;998;;;16.4;41.6
12722;BME280;6425;50.316;8.114;2023-05-18T11:54:00;998;;;15.9;42.7
12722;BME280;6425;50.316;8.114;2023-05-18T11:57:00;998;;;16.3;42.3
12722;BME280;6425;50.316;8.114;2023-05-18T12:00:00;998;;;15.9;41.6
12722;BME280;6425;50.316;8.114;2023-05-18T12:03:00;998;;;15.4;42.4
12722;BME280;6425;50.316;8.114;2023-05-18T12:06:00;998;;;15.5;42.5
12722;BME280;6425;50.316;8.114;2023-05-18T12:09:00;998;;;16.8;40.7
12722;BME280;6425;50.316;8.114;2023-05-18T12:12:00;998;;;17.4;39.9
12722;BME280;6425;50.316;8.114;2023-05-18T12:15:00;998;;;17.8;39.9
12722;BME280;6425;50.316;8.114;2023-05-18T12:18:00;998;;;17.3;39.2
12722;BME280;6425;50.316;8.114;2023-05-18T12:21:02;998;;;17.2;39.5
12722;BME280;6425;50.316;8.114;2023-05-18T12:24:00;998;;;17.5;39.6
12722;BME280;6425;50.316;8.114;2023-05-18T12:27:00;998;;;16.8;41.2
12722;BME280;6425;50.316;8.114;2023-05-18T12:30:00;998;;;16.8;40.5
12722;BME280;6425;50.316;8.114;2023-05-18T12:33:00;998;;;16.9;39.5
12722;BME280;6425;50.316;8.114;2023-05-18T12:36:00;998;;;16.5;39.9
12722;BME280;6425;50.316;8.114;2023-05-18T12:39:00;998;;;17;40.1
12722;BME280;6425;50.316;8.114;2023-05-18T12:42:08;998;;;17.3;39.5
12722;BME280;6425;50.316;8.114;2023-05-18T12:45:00;998;;;17.6;38.8
12722;BME280;6425;50.316;8.114;2023-05-18T12:48:02;998;;;16.8;40.7
12722;BME280;6425;50.316;8.114;2023-05-18T12:51:00;998;;;16.7;40.9
12722;BME280;6425;50.316;8.114;2023-05-18T12:54:00;998;;;16.6;42.6
12722;BME280;6425;50.316;8.114;2023-05-18T12:57:03;998;;;17.1;40
12722;BME280;6425;50.316;8.114;2023-05-18T13:00:00;998;;;18;39.5
12722;BME280;6425;50.316;8.114;2023-05-18T13:03:07;998;;;17.1;39.6
12722;BME280;6425;50.316;8.114;2023-05-18T13:06:00;998;;;17.9;39.4
12722;BME280;6425;50.316;8.114;2023-05-18T13:09:00;998;;;16.9;39.4
12722;BME280;6425;50.316;8.114;2023-05-18T13:12:00;998;;;17.6;41
12722;BME280;6425;50.316;8.114;2023-05-18T13:15:05;998;;;18.2;38.2
12722;BME280;6425;50.316;8.114;2023-05-18T13:18:00;998;;;17.8;39.7
12722;BME280;6425;50.316;8.114;2023-05-18T13:21:00;998;;;17.9;39.3
12722;BME280;6425;50.316;8.114;2023-05-18T13:24:00;998;;;17.7;39.8
12722;BME280;6425;50.316;8.114;2023-05-18T13:27:00;998;;;18;38.5
12722;BME280;6425;50.316;8.114;2023-05-18T13:30:00;998;;;18.4;37.1
12722;BME280;6425;50.316;8.114;2023-05-18T13:33:00;998;;;18.4;37.2
12722;BME280;6425;50.316;8.114;2023-05-18T13:36:00;998;;;17.9;38.1
12722;BME280;6425;50.316;8.114;2023-05-18T13:39:00;998;;;17.8;38.4
12722;BME280;6425;50.316;8.114;2023-05-18T13:42:00;997;;;17.2;39.2
12722;BME280;6425;50.316;8.114;2023-05-18T13:45:00;998;;;17.5;39.2
12722;BME280;6425;50.316;8.114;2023-05-18T13:48:00;997;;;17.4;37
12722;BME280;6425;50.316;8.114;2023-05-18T13:51:00;997;;;17.8;37.5
12722;BME280;6425;50.316;8.114;2023-05-18T13:54:00;997;;;17.2;39.1
12722;BME280;6425;50.316;8.114;2023-05-18T13:57:00;997;;;17.8;38.1
12722;BME280;6425;50.316;8.114;2023-05-18T14:00:00;997;;;18.1;37.5
12722;BME280;6425;50.316;8.114;2023-05-18T14:03:00;997;;;18.2;37.7
12722;BME280;6425;50.316;8.114;2023-05-18T14:06:00;997;;;18.2;37.7
12722;BME280;6425;50.316;8.114;2023-05-18T14:09:00;997;;;18.3;37
12722;BME280;6425;50.316;8.114;2023-05-18T14:12:00;997;;;18.5;37
12722;BME280;6425;50.316;8.114;2023-05-18T14:15:00;997;;;17.9;37.9
12722;BME280;6425;50.316;8.114;2023-05-18T14:18:00;997;;;17.6;39.1
12722;BME280;6425;50.316;8.114;2023-05-18T14:21:00;997;;;17.6;39
12722;BME280;6425;50.316;8.114;2023-05-18T14:24:00;997;;;18.1;37.3
12722;BME280;6425;50.316;8.114;2023-05-18T14:27:00;997;;;18;37.6
12722;BME280;6425;50.316;8.114;2023-05-18T14:30:00;997;;;17.5;39.5
12722;BME280;6425;50.316;8.114;2023-05-18T14:33:00;997;;;17.5;39.2
12722;BME280;6425;50.316;8.114;2023-05-18T14:36:00;997;;;18.2;38.4
12722;BME280;6425;50.316;8.114;2023-05-18T14:39:00;997;;;18.1;38.8
12722;BME280;6425;50.316;8.114;2023-05-18T14:42:00;997;;;18.2;37.8
12722;BME280;6425;50.316;8.114;2023-05-18T14:45:00;997;;;18.6;36.2
12722;BME280;6425;50.316;8.114;2023-05-18T14:48:00;997;;;19;35
12722;BME280;6425;50.316;8.114;2023-05-18T14:51:00;997;;;18.7;36
12722;BME280;6425;50.316;8.114;2023-05-18T14:54:00;997;;;18.1;37.1
12722;BME280;6425;50.316;8.114;2023-05-18T14:57:00;997;;;17.9;37.5
12722;BME280;6425;50.316;8.114;2023-05-18T15:00:00;997;;;18;36.8
12722;BME280;6425;50.316;8.114;2023-05-18T15:03:00;997;;;18.2;36.5
12722;BME280;6425;50.316;8.114;2023-05-18T15:06:00;997;;;17.9;36.9
12722;BME280;6425;50.316;8.114;2023-05-18T15:09:00;997;;;17.7;36
12722;BME280;6425;50.316;8.114;2023-05-18T15:12:00;997;;;17.2;38.2
12722;BME280;6425;50.316;8.114;2023-05-18T15:15:00;997;;;17.5;37.2
12722;BME280;6425;50.316;8.114;2023-05-18T15:18:00;997;;;18.3;37.3
12722;BME280;6425;50.316;8.114;2023-05-18T15:21:00;997;;;18.3;37.4
12722;BME280;6425;50.316;8.114;2023-05-18T15:24:00;997;;;18.7;36.3
12722;BME280;6425;50.316;8.114;2023-05-18T15:27:00;997;;;19.2;35.5
12722;BME280;6425;50.316;8.114;2023-05-18T15:30:00;997;;;18.2;36.8
12722;BME280;6425;50.316;8.114;2023-05-18T15:33:00;997;;;17.8;37.1
12722;BME280;6425;50.316;8.114;2023-05-18T15:36:00;997;;;18;36.2
12722;BME280;6425;50.316;8.114;2023-05-18T15:39:00;997;;;18;35
12722;BME280;6425;50.316;8.114;2023-05-18T15:42:00;997;;;18.2;35.7
12722;BME280;6425;50.316;8.114;2023-05-18T15:45:00;997;;;18.4;36.7
12722;BME280;6425;50.316;8.114;2023-05-18T15:48:00;997;;;17.9;37.2
12722;BME280;6425;50.316;8.114;2023-05-18T15:51:00;997;;;17.5;39
12722;BME280;6425;50.316;8.114;2023-05-18T15:54:00;997;;;17.5;39
12722;BME280;6425;50.316;8.114;2023-05-18T15:57:00;997;;;18.4;38.1
12722;BME280;6425;50.316;8.114;2023-05-18T16:00:00;997;;;18.6;36.2
12722;BME280;6425;50.316;8.114;2023-05-18T16:03:00;997;;;18.2;37.4
12722;BME280;6425;50.316;8.114;2023-05-18T16:06:00;997;;;17.8;37.4
12722;BME280;6425;50.316;8.114;2023-05-18T16:09:00;997;;;17.9;38
12722;BME280;6425;50.316;8.114;2023-05-18T16:12:00;997;;;18.1;38.5
12722;BME280;6425;50.316;8.114;2023-05-18T16:15:00;997;;;17.9;37.6
12722;BME280;6425;50.316;8.114;2023-05-18T16:18:00;997;;;17.8;37.2
12722;BME280;6425;50.316;8.114;2023-05-18T16:21:00;997;;;17.7;38
12722;BME280;6425;50.316;8.114;2023-05-18T16:24:00;997;;;18;39.2
12722;BME280;6425;50.316;8.114;2023-05-18T16:27:00;997;;;18.1;38.9
12722;BME280;6425;50.316;8.114;2023-05-18T16:30:00;997;;;18;39.1
12722;BME280;6425;50.316;8.114;2023-05-18T16:33:00;997;;;17.9;39.3
12722;BME280;6425;50.316;8.114;2023-05-18T16:36:00;997;;;17.5;39.2
12722;BME280;6425;50.316;8.114;2023-05-18T16:39:00;997;;;17.4;40.6
12722;BME280;6425;50.316;8.114;2023-05-18T16:42:00;997;;;17.8;39.4
12722;BME280;6425;50.316;8.114;2023-05-18T16:45:00;997;;;17.7;39.5
12722;BME280;6425;50.316;8.114;2023-05-18T16:48:00;997;;;17.9;38.7
12722;BME280;6425;50.316;8.114;2023-05-18T16:51:00;997;;;17.6;38.4
12722;BME280;6425;50.316;8.114;2023-05-18T16:54:00;997;;;17.4;39.2
12722;BME280;6425;50.316;8.114;2023-05-18T16:57:00;997;;;17.4;39.1
12722;BME280;6425;50.316;8.114;2023-05-18T17:00:00;997;;;17.4;39.3
12722;BME280;6425;50.316;8.114;2023-05-18T17:03:00;997;;;17;40.5
12722;BME280;6425;50.316;8.114;2023-05-18T17:06:00;997;;;16.9;41.7
12722;BME280;6425;50.316;8.114;2023-05-18T17:09:00;997;;;17.6;40.5
12722;BME280;6425;50.316;8.114;2023-05-18T17:12:00;997;;;18;39
12722;BME280;6425;50.316;8.114;2023-05-18T17:15:00;997;;;17.9;38.3
12722;BME280;6425;50.316;8.114;2023-05-18T17:18:00;997;;;17.5;38.6
12722;BME280;6425;50.316;8.114;2023-05-18T17:21:00;997;;;17.1;39.9
12722;BME280;6425;50.316;8.114;2023-05-18T17:24:00;997;;;17.1;39.4
12722;BME280;6425;50.316;8.114;2023-05-18T17:27:00;997;;;16.9;39.9
12722;BME280;6425;50.316;8.114;2023-05-18T17:30:00;997;;;17;39.8
12722;BME280;6425;50.316;8.114;2023-05-18T17:33:00;997;;;17;40.1
12722;BME280;6425;50.316;8.114;2023-05-18T17:36:00;997;;;17.3;40.3
12722;BME280;6425;50.316;8.114;2023-05-18T17:39:00;997;;;16.9;41.2
12722;BME280;6425;50.316;8.114;2023-05-18T17:42:00;997;;;16.9;41.7
12722;BME280;6425;50.316;8.114;2023-05-18T17:45:00;997;;;16.8;42.3
12722;BME280;6425;50.316;8.114;2023-05-18T17:48:00;997;;;17.1;42.1
12722;BME280;6425;50.316;8.114;2023-05-18T17:51:00;997;;;16.9;42.3
12722;BME280;6425;50.316;8.114;2023-05-18T17:54:00;997;;;16.8;42.7